Aérodrome :
LOGIN :

S'inscrire | Disclaimer

   EN    FR    IT 

 










Légende :    VFR   VFR Marginal   IFR   IFR Intensif   IFR Très Intensif
Visi : 
Plafond : 
>= 8 km
>= 3000ft
5 à 8 km
1000 à 3000 ft
1500m à 5 km
500 à 1000 ft
800 à 1500m
200 à 500 ft
< 800m
< 200 ft
Symboles :   Orages  Brouillard  Fortes neiges  Fortes précipitations  Vent > 20 kt
SIGMETs :   Divers  Orages  Givrage  Turbulence  Onde Orograph.  Cendres Volcan.






- Altitude de l'aérodrome : 1058 ft
- Code IATA : SCN


EDDR - Saarbrücken

DERNIER METAR :
  • 301120Z AUTO 23009KT 2900 -SN BR OVC002 00/00 Q1021 NOSIG

METARs EXPIRÉS :
  • 301050Z AUTO 23011KT 4800 -SN BR OVC002 00/M00 Q1021 REDZ TEMPO 4000
  • 301020Z AUTO 23012KT 4600 -DZ BR OVC003 00/M00 Q1022 REDZ NOSIG
  • 300950Z AUTO 23013KT 2400 -SNRA BR OVC003 00/M00 Q1021 REFZRA NOSIG
  • 300920Z AUTO 23012KT 2600 -FZRADZ BR OVC003 M00/M00 Q1022 RESN NOSIG
  • 300850Z AUTO 23013KT 2000 -FZRADZ BR OVC003 M00/M01 Q1022 RESN NOSIG

TAF TAF EDDR
Valide du 30 à 06h jusqu'au 31 à 06h UTC


300500Z 3006/3106 24012KT 6000 OVC005
TEMPO 3006/3015 24015G25KT
TEMPO 3006/3010 2000 -FZDZ BKN003
TEMPO 3010/3015 4000 DZRA BKN004
BECMG 3015/3018 26007KT SCT010 BKN020



MET'MAP, la Météo Aéronautique d'un coup d'oeil ! - Copyright ORBIFLY Décembre 2007 - Disclaimer

ORBIFLY MET'MAP TEAM :

Programmation & Développement : Alexandra Zaïnal
Sur une idée originale de : Baudouin d'Aumeries
Soutien technique & logistique : Manuel Goepfert
Assistance : Marc-Olivier Méhu




SOURCES & CREDITS :

   NOAA